My Meet Scores
Taylor Woolsey, The Gymnastics Shop - MyMeetScores.com
Top100 | Top Teams | Upcoming Meets | Completed Meets | Latest | Add Scores | Help| Support | Bookmark and Share

Taylor Woolsey, The Gymnastics Shop
Personal Bests
LevelVault BarsBeamFloorAA
49.4009.600 9.2759.45036.475
59.2759.050 9.3759.32537.025
69.3259.450 9.5009.50037.050
79.6008.800 9.4009.62536.125
Meet Scores
Date Meet Team Session Level Division Vault Bars Beam Floor AA
2018-04-20 2018 Region 5 Levels 7/8 Championships The Gymnastics Shop 03A 7 Sr C2 9.350 13T 8.200 28 9.050 20 9.525 8T 36.125 20
2018-03-23 Illinois Level 7 & 8 State Competition The Gymnastics Shop 06 7 Sr C 9.600 5 7.775 21 8.800 20 9.625 2T 35.800 14
2018-02-23 Kinetic Classic The Gymnastics Shop 1 7 Older 9.100 28T 8.800 44 8.925 34T 9.150 30T 35.975 35
2018-02-17 Women's Midwest Open The Gymnastics Shop 13 7 Sr B 9.200 11 7.900 10 8.750 6T 9.350 3 35.200 7
2018-02-08 Nashville Nights 2018 The Gymnastics Shop Y04 7 SrC 9.075 5 7.800 8T 8.925 3 9.125 8 34.925 8
2018-01-19 2018 Bravo Classic The Gymnastics Shop 2A 7 All 9.400 4 7.800 3 9.400 2 9.375 1 35.975 3
2018-01-12 St Jude Benefit Meet The Gymnastics Shop 9B 7 SrB 9.350 7 8.000 12 8.925 8T 9.050 6 35.325 8
2017-12-15 2017 Aspire Classic The Gymnastics Shop 4 7 Older 9.475 8T 8.200 10T 9.200 3 9.175 8T 36.050 6
2017-12-08 St. Nick Invite The Gymnastics Shop 2 7 SrB 9.250 4 7.500 11 9.000 3T 9.150 5 34.900 7
2017-12-01 Ultimate Wish Classic The Gymnastics Shop 3 7 SR1 9.200 7 7.700 18T 8.850 5 9.300 3 35.050 10
2017-11-10 Illinois NAWGJ Judges Cup 2017 The Gymnastics Shop S5 7 All Ages 9.250 19T 8.000 40 9.275 7 9.300 19T 35.825 23T
2017-03-23 2017 Illinois Level 6, 7 State Championship The Gymnastics Shop 10 6 Sr B 9.325 5T 8.550 19 8.550 26 9.425 6 35.850 18
2017-02-24 Dairy Aire Invitational The Gymnastics Shop 5A 6 Jr C 8.900 5T 8.025 14 9.100 6T 9.250 4T 35.275 6
2017-02-10 IGI Chicago Style Gymnastics Meet The Gymnastics Shop 532W 6 SrB 9.300 3 8.975 9 9.325 5 9.450 8 37.050 3
2017-01-27 2017 UGA Invitational The Gymnastics Shop A8 6 Senior 9.050 12 8.450 10 9.500 2T 9.425 2T 36.425 5
2017-01-13 Legacy Elite Winter Classic The Gymnastics Shop A3 6 Sr 8.800 6 9.150 3 9.225 3 9.300 3 36.475 5
2016-12-16 2016 Aspire Classic The Gymnastics Shop 2 6 Older 8.850 10 9.450 1 9.325 2T 9.250 5T 36.875 1
2016-12-02 Ultimate Wish Classic The Gymnastics Shop 8 6 Junior 9.100 3T 8.225 12 9.100 5 9.500 2T 35.925 6
2016-11-11 2016 Illinois Judges Cup The Gymnastics Shop B3 6 12 Year Ol 9.000 1T 9.000 1T 8.925 9 9.050 10T 35.975 3
2016-04-22 2016 Illinois Level 5 And Xcel State Championships Buffalo Grove Gymn Center 1 5 Sr A 8.800 15 8.725 13T 9.000 10T 9.325 1 35.850 12
2016-02-19 Midwest Open Womens 2016 Buffalo Grove Gymn Center 3A 5 12+ 9.275 2 9.050 9 9.375 2 9.325 4 37.025 2
2016-01-15 2016 Bravo Classic Buffalo Grove Gymn Center 10A 5 10-11yrs 9.225 7 9.050 7 8.900 16 9.275 5 36.450 5
2015-12-17 2015 Hawaiian Pineapple Classic Buffalo Grove Gymn Center 7A 5 Age 12 9.025 2T 8.425 12 9.000 7T 9.275 1 35.725 4
2015-12-04 2015 Ultimate Wish Classic Buffalo Grove Gymn Center 9A 5 All 9.000 14 8.200 45 9.000 21 9.200 5 35.400 18
2015-03-13 2015 Lucky Invite Buffalo Grove Gymn Center B9 5 Jr.C 9.200 3 7.400 9 9.050 6 8.825 8 34.475 8
2014-03-13 2014 Illinois Level 4 State Meet Buffalo Grove Gymn Center 4 Jr.C 8.950 11 8.175 29 9.175 18 9.450 10 35.750 19
2014-02-15 BIG Dream Classic 2014 Buffalo Grove Gymn Center 1A 4 Child B 9.000 2T 8.175 11T 9.250 5 9.150 5 35.575 6
2013-12-19 2013 Hawaiian Pineapple Classic Buffalo Grove Gymn Center A6 4 9 8.750 5T 8.050 12 9.275 6 8.800 11 34.875 9
2013-12-06 Ultimate Wish Classic Buffalo Grove Gymn Center A 4 Junior5 9.000 3 8.150 14 8.925 7 9.250 3 35.325 12
2013-04-26 2013 Illinois Level 5 and Xcel State Meet Buffalo Grove Gymn Center 5 Child.D 8.500 26 8.400 31 8.550 25 9.175 21 34.625 28
2013-03-01 Spring Hill Elgin Invitational Buffalo Grove Gymn Center 6 5 Jr.A 8.000 18 7.875 24 8.800 13 8.750 21 33.425 23
2013-02-16 2013 The Great Western Invitational Buffalo Grove Gymn Center 5 Jr.A 8.050 37 7.650 41 8.550 30 8.450 38 32.700 42
2013-01-12 St. Jude Benefit Meet Buffalo Grove Gymn Center GymA 5 7-8 8.300 32 8.350 52 8.825 25 9.050 21 34.525 33
2012-12-13 2012 Hawaiin Pineapple Classic Buffalo Grove Gymn Center B10 5 age 9 7.850 15T 7.550 16 8.300 13 9.000 11T 32.700 16
2012-11-30 Ultimate Wish Classic 2012 Buffalo Grove Gymn Center 5 L5 Jr A S5 7.900 12 8.300 11 8.250 18 8.625 12 33.075 12
2012-04-20 2012 Illinois Level 4 State Championships Buffalo Grove Gymn Center 2 4 Child.E 9.400 8 9.300 13 8.700 22 9.075 12 36.475 14
2012-03-09 Flip r Invite Buffalo Grove Gymn Center 4 8-9 8.950 54 9.000 33 8.450 61 8.725 53 35.125 47
2012-02-18 BIG Dream Classic 2012 Buffalo Grove Gymn Center 1A 4 Child 8.775 5 9.600 1 8.325 4 9.050 4 35.750 5
2012-02-04 2012 St. Valentines Classic Buffalo Grove Gymn Center 3C 4 8 8.650 13 9.150 4 8.200 14 9.350 3 35.350 5
2012-01-27 Wisconsin Dell's Gymnastics Vaction Classic Buffalo Grove Gymn Center 10DE 4 7b yr old 9.150 6 8.600 2T 8.450 3 9.300 2 35.500 2
2011-12-02 2011 Ultimate Wish Classic Buffalo Grove Gymn Center 6 4 Jr.A 9.100 8 9.000 5 8.775 6 8.825 5 35.700 6

www.lazysuits.com